Humidity-temperature Sensor

Selected Measurement Type: Air Temperature

 
Air Temperature [°C]     6 entries per hour
Showing data from 7/3/2022 (13:00:00 Z) to 7/2/2022 (00:01:00 Z)
Previous Next [ Day | 3-Days | 7-Days ]
First Last
Prev [ Day | 3-Days | 7-Days ] Next
First Last

Start Time:     :
End Time:     :     
Time (in GMT) :00 :50 :40 :30 :20 :10
Previous Next [ Day | 3-Days | 7-Days ]
First Last
Prev [ Day | 3-Days | 7-Days ] Next
First Last


123 => good data
MM => data is determined as missing
-- => data not received/configured
Back to Top Back to Top
7/3/2022 13:00 to 12:10 24.99 24.95 25.05 24.81 24.93 24.70
7/3/2022 12:00 to 11:10 24.77 24.72 25.02 24.88 24.61 24.87
7/3/2022 11:00 to 10:10 24.65 24.61 24.64 24.59 24.48 24.59
7/3/2022 10:00 to 9:10 24.43 24.24 24.46 24.24 24.34 24.40
7/3/2022 09:00 to 8:10 24.31 24.45 24.51 24.56 24.60 24.60
7/3/2022 08:00 to 7:10 24.98 24.84 25.06 25.20 25.16 25.08
7/3/2022 07:00 to 6:10 25.22 25.15 25.16 25.17 25.20 25.22
7/3/2022 06:00 to 5:10 25.17 25.22 25.45 25.46 25.21 25.09
7/3/2022 05:00 to 4:10 25.19 25.14 25.31 25.26 25.21 25.23
7/3/2022 04:00 to 3:10 25.39 25.23 25.17 25.19 25.14 25.12
7/3/2022 03:00 to 2:10 25.17 25.22 25.10 25.02 25.20 25.40
7/3/2022 02:00 to 1:10 25.26 25.27 25.19 25.37 25.17 25.36
7/3/2022 01:00 to 0:10 25.19 25.04 25.10 25.30 25.28 25.20
7/3/2022 00:00 to 23:10 25.09 25.13 25.01 25.18 25.17 25.10
7/2/2022 23:00 to 22:10 25.14 25.09 25.17 25.20 25.23 25.13
7/2/2022 22:00 to 21:10 25.22 25.33 25.42 25.26 25.43 25.32
7/2/2022 21:00 to 20:10 25.25 25.27 25.20 25.14 25.23 25.15
7/2/2022 20:00 to 19:10 25.28 25.15 25.08 25.08 25.20 25.28
7/2/2022 19:00 to 18:10 25.23 25.39 25.53 25.44 25.40 25.61
7/2/2022 18:00 to 17:10 25.40 25.24 25.15 25.22 25.23 25.22
7/2/2022 17:00 to 16:10 25.42 25.25 25.28 25.47 25.39 25.51
7/2/2022 16:00 to 15:10 25.51 25.37 25.33 25.39 25.39 25.28
7/2/2022 15:00 to 14:10 25.33 25.16 25.15 25.13 25.20 25.06
7/2/2022 14:00 to 13:10 25.03 25.13 25.49 25.23 25.07 24.99
7/2/2022 13:00 to 12:10 24.91 24.83 24.75 24.72 24.89 25.30
7/2/2022 12:00 to 11:10 25.14 25.27 25.12 25.06 25.25 25.28
7/2/2022 11:00 to 10:10 25.06 25.19 25.04 25.07 24.89 24.99
7/2/2022 10:00 to 9:10 24.83 25.07 24.89 24.97 24.98 24.86
7/2/2022 09:00 to 8:10 24.89 25.15 25.04 25.10 25.11 25.00
7/2/2022 08:00 to 7:10 25.08 25.10 24.96 25.28 25.15 25.27
7/2/2022 07:00 to 6:10 25.26 25.44 25.37 25.17 25.32 25.17
7/2/2022 06:00 to 5:10 25.23 25.01 24.87 24.79 24.24 24.30
7/2/2022 05:00 to 4:10 24.18 24.35 24.48 24.52 24.30 24.39
7/2/2022 04:00 to 3:10 24.46 24.42 24.35 24.38 24.28 24.14
7/2/2022 03:00 to 2:10 24.30 24.19 24.44 24.74 24.70 24.63
7/2/2022 02:00 to 1:10 24.61 24.24 24.31 23.97 24.17 23.83
7/2/2022 01:00 to 0:10 24.10 24.39 24.18 24.43 24.81 25.05